createdAt,value
2019-01-24T00:02:10.791Z,83.32
2019-01-24T00:04:42.977Z,84.53
2019-01-24T00:07:14.919Z,84.07
2019-01-24T00:09:46.844Z,84.59
2019-01-24T00:12:19.016Z,84.68
2019-01-24T00:14:50.785Z,84.46
2019-01-24T00:17:22.704Z,84.18
2019-01-24T00:19:54.479Z,84.05
2019-01-24T00:22:26.402Z,84.22
2019-01-24T00:24:58.330Z,84.28
2019-01-24T00:27:30.687Z,84.36
2019-01-24T00:30:02.598Z,84.18
2019-01-24T00:32:34.696Z,84.49
2019-01-24T00:35:07.286Z,84.78
2019-01-24T00:37:39.303Z,84.56
2019-01-24T00:40:14.111Z,84.78
2019-01-24T00:42:46.155Z,84.21
2019-01-24T00:45:18.585Z,84.45
2019-01-24T00:47:50.515Z,84.30
2019-01-24T00:50:22.372Z,84.32
2019-01-24T00:52:54.303Z,84.30
2019-01-24T00:55:26.754Z,84.43
2019-01-24T00:57:58.688Z,84.21
2019-01-24T01:00:31.226Z,84.18
2019-01-24T01:03:03.230Z,84.21
2019-01-24T01:05:35.487Z,84.46
2019-01-24T01:08:07.425Z,84.65
2019-01-24T01:10:39.335Z,84.44
2019-01-24T01:13:11.262Z,84.37
2019-01-24T01:15:43.216Z,83.93
2019-01-24T01:18:15.121Z,84.38
2019-01-24T01:20:47.282Z,84.90
2019-01-24T01:23:19.208Z,84.56
2019-01-24T01:25:51.372Z,84.41
2019-01-24T01:28:23.305Z,84.38
2019-01-24T01:30:55.225Z,84.27
2019-01-24T01:33:27.163Z,84.35
2019-01-24T01:35:59.087Z,84.00
2019-01-24T01:38:30.940Z,84.33
2019-01-24T01:41:02.856Z,84.07
2019-01-24T01:43:34.781Z,83.90
2019-01-24T01:46:06.770Z,84.38
2019-01-24T01:48:38.708Z,84.25
2019-01-24T01:51:10.621Z,84.49
2019-01-24T01:53:42.538Z,84.22
2019-01-24T01:56:14.467Z,83.90
2019-01-24T01:58:46.325Z,84.13
2019-01-24T02:01:18.188Z,84.11
2019-01-24T02:03:50.056Z,84.59
2019-01-24T02:06:21.994Z,84.51
2019-01-24T02:08:53.925Z,85.05
2019-01-24T02:11:25.853Z,85.11
2019-01-24T02:13:57.785Z,85.15
2019-01-24T02:16:29.625Z,84.59
2019-01-24T02:19:01.479Z,85.14
2019-01-24T02:21:34.000Z,85.74
2019-01-24T02:24:06.243Z,85.41
2019-01-24T02:26:38.173Z,85.21
2019-01-24T02:29:10.354Z,85.21
2019-01-24T02:31:42.272Z,85.04
2019-01-24T02:34:14.129Z,84.87
2019-01-24T02:36:46.049Z,84.78
2019-01-24T02:39:17.901Z,84.69
2019-01-24T02:41:49.826Z,84.58
2019-01-24T02:44:21.748Z,84.87
2019-01-24T02:46:53.600Z,84.84
2019-01-24T02:49:25.544Z,84.58
2019-01-24T02:51:57.375Z,84.65
2019-01-24T02:54:29.231Z,84.28
2019-01-24T02:57:01.153Z,84.35
2019-01-24T02:59:33.035Z,84.39
2019-01-24T03:02:05.345Z,84.19
2019-01-24T03:04:37.216Z,83.89
2019-01-24T03:07:10.183Z,84.07
2019-01-24T03:09:42.046Z,83.82
2019-01-24T03:12:14.236Z,83.64
2019-01-24T03:14:46.476Z,83.95
2019-01-24T03:17:18.443Z,83.79
2019-01-24T03:19:50.350Z,83.29
2019-01-24T03:22:22.282Z,83.31
2019-01-24T03:24:54.479Z,83.21
2019-01-24T03:27:26.405Z,83.37
2019-01-24T03:29:58.358Z,83.62
2019-01-24T03:32:30.128Z,82.70
2019-01-24T03:35:04.370Z,81.92
2019-01-24T03:37:35.922Z,81.95
2019-01-24T03:40:09.988Z,82.35
2019-01-24T03:42:42.723Z,81.33
2019-01-24T03:45:16.339Z,80.92
2019-01-24T03:47:48.341Z,80.72
2019-01-24T03:50:22.111Z,80.58
2019-01-24T03:52:54.011Z,81.30
2019-01-24T03:55:25.941Z,81.79
2019-01-24T03:57:57.823Z,83.53
2019-01-24T04:00:29.920Z,84.22
2019-01-24T04:03:01.828Z,85.08
2019-01-24T04:05:33.668Z,84.91
2019-01-24T04:08:05.562Z,84.80
2019-01-24T04:10:37.387Z,84.77
2019-01-24T04:13:10.016Z,85.10
2019-01-24T04:15:41.933Z,84.95
2019-01-24T04:18:13.821Z,85.28
2019-01-24T04:20:45.589Z,84.69
2019-01-24T04:23:17.337Z,84.79
2019-01-24T04:25:49.374Z,84.96
2019-01-24T04:28:21.212Z,85.06
2019-01-24T04:30:54.079Z,84.87
2019-01-24T04:33:25.837Z,84.55
2019-01-24T04:35:57.590Z,84.49
2019-01-24T04:38:29.339Z,84.29
2019-01-24T04:41:01.178Z,84.33
2019-01-24T04:43:32.919Z,84.50
2019-01-24T04:46:04.984Z,84.56
2019-01-24T04:48:37.036Z,84.75
2019-01-24T04:51:10.117Z,84.23
2019-01-24T04:53:41.952Z,84.00
2019-01-24T04:56:13.788Z,83.84
2019-01-24T04:58:45.818Z,83.54
2019-01-24T05:01:17.817Z,83.83
2019-01-24T05:03:49.648Z,83.58
2019-01-24T05:06:21.552Z,83.74
2019-01-24T05:08:53.313Z,84.02
2019-01-24T05:11:25.360Z,83.73
2019-01-24T05:13:57.106Z,83.47
2019-01-24T05:16:28.869Z,83.33
2019-01-24T05:19:00.615Z,83.77
2019-01-24T05:21:32.459Z,84.00
2019-01-24T05:24:04.349Z,83.94
2019-01-24T05:26:36.104Z,82.63
2019-01-24T05:29:07.845Z,83.41
2019-01-24T05:31:39.861Z,84.36
2019-01-24T05:34:11.614Z,84.46
2019-01-24T05:36:43.366Z,84.93
2019-01-24T05:39:15.186Z,84.77
2019-01-24T05:41:47.193Z,84.77
2019-01-24T05:44:18.945Z,84.18
2019-01-24T05:46:50.776Z,84.80
2019-01-24T05:49:22.594Z,84.65
2019-01-24T05:51:54.376Z,84.67
2019-01-24T05:54:26.206Z,84.97
2019-01-24T05:56:57.981Z,84.71
2019-01-24T05:59:29.722Z,84.77
2019-01-24T06:02:01.737Z,84.78
2019-01-24T06:04:33.567Z,84.35
2019-01-24T06:07:05.479Z,84.79
2019-01-24T06:09:37.228Z,84.64
2019-01-24T06:12:10.143Z,84.53
2019-01-24T06:14:41.883Z,84.58
2019-01-24T06:17:14.617Z,84.37
2019-01-24T06:19:46.467Z,84.76
2019-01-24T06:22:18.320Z,84.87
2019-01-24T06:24:50.207Z,84.88
2019-01-24T06:27:22.236Z,84.46
2019-01-24T06:29:53.983Z,84.26
2019-01-24T06:32:25.898Z,84.44
2019-01-24T06:34:57.721Z,84.33
2019-01-24T06:37:29.496Z,84.49
2019-01-24T06:40:01.488Z,84.49
2019-01-24T06:42:33.323Z,84.63
2019-01-24T06:45:06.492Z,84.72
2019-01-24T06:47:38.398Z,84.74
2019-01-24T06:50:12.577Z,85.03
2019-01-24T06:52:47.900Z,84.85
2019-01-24T06:55:28.384Z,84.45
2019-01-24T06:58:00.215Z,84.78
2019-01-24T07:00:32.049Z,84.76
2019-01-24T07:03:03.958Z,84.67
2019-01-24T07:05:35.718Z,84.77
2019-01-24T07:08:07.617Z,84.55
2019-01-24T07:10:39.513Z,84.76
2019-01-24T07:13:11.276Z,84.42
2019-01-24T07:15:43.157Z,84.73
2019-01-24T07:18:14.987Z,85.32
2019-01-24T07:20:46.736Z,85.32
2019-01-24T07:23:18.511Z,84.88
2019-01-24T07:25:50.319Z,84.49
2019-01-24T07:28:22.235Z,84.70
2019-01-24T07:30:53.976Z,84.65
2019-01-24T07:33:26.058Z,84.84
2019-01-24T07:36:02.095Z,84.46
2019-01-24T07:38:31.335Z,84.69
2019-01-24T07:41:03.154Z,84.91
2019-01-24T07:43:34.987Z,84.98
2019-01-24T07:46:07.368Z,84.53
2019-01-24T07:48:39.457Z,84.35
2019-01-24T07:51:11.279Z,84.37
2019-01-24T07:53:43.026Z,83.94
2019-01-24T07:56:15.036Z,84.06
2019-01-24T07:58:46.799Z,83.90
2019-01-24T08:01:18.621Z,83.91
2019-01-24T08:03:50.534Z,83.91
2019-01-24T08:06:22.286Z,83.80
2019-01-24T08:08:54.126Z,84.20
2019-01-24T08:11:25.960Z,84.34
2019-01-24T08:13:57.727Z,84.30
2019-01-24T08:16:29.572Z,84.13
2019-01-24T08:19:01.494Z,84.05
2019-01-24T08:21:33.628Z,84.12
2019-01-24T08:24:05.541Z,83.83
2019-01-24T08:26:37.367Z,83.93
2019-01-24T08:29:10.272Z,83.45
2019-01-24T08:31:42.111Z,82.91
2019-01-24T08:34:14.005Z,81.80
2019-01-24T08:36:45.934Z,82.33
2019-01-24T08:39:17.712Z,82.21
2019-01-24T08:41:49.457Z,82.50
2019-01-24T08:44:21.226Z,82.94
2019-01-24T08:46:53.233Z,82.83
2019-01-24T08:49:24.998Z,82.84
2019-01-24T08:51:57.247Z,82.89
2019-01-24T08:54:29.385Z,82.62
2019-01-24T08:57:01.287Z,82.64
2019-01-24T08:59:33.090Z,82.69
2019-01-24T09:02:05.870Z,83.00
2019-01-24T09:04:37.989Z,82.61
2019-01-24T09:07:09.900Z,82.25
2019-01-24T09:09:41.733Z,81.57
2019-01-24T09:12:13.569Z,80.88
2019-01-24T09:14:45.432Z,81.24
2019-01-24T09:17:17.468Z,81.24
2019-01-24T09:19:49.507Z,81.00
2019-01-24T09:22:21.269Z,81.10
2019-01-24T09:24:53.107Z,81.14
2019-01-24T09:27:26.134Z,81.02
2019-01-24T09:29:58.147Z,80.68
2019-01-24T09:32:29.978Z,80.86
2019-01-24T09:35:01.814Z,80.37
2019-01-24T09:37:33.568Z,80.65
2019-01-24T09:40:08.859Z,80.37
2019-01-24T09:42:41.034Z,80.40
2019-01-24T09:45:25.626Z,80.19
2019-01-24T09:48:00.256Z,80.42
2019-01-24T09:50:32.267Z,80.15
2019-01-24T09:53:04.093Z,80.43
2019-01-24T09:55:35.999Z,80.57
2019-01-24T09:58:07.988Z,80.41
2019-01-24T10:00:39.919Z,80.26
2019-01-24T10:03:12.066Z,79.58
2019-01-24T10:05:43.851Z,79.48
2019-01-24T10:08:15.755Z,79.31
2019-01-24T10:10:47.605Z,78.94
2019-01-24T10:13:19.601Z,78.04
2019-01-24T10:15:51.363Z,78.17
2019-01-24T10:18:23.270Z,78.38
2019-01-24T10:20:55.112Z,78.86
2019-01-24T10:23:27.007Z,78.80
2019-01-24T10:25:58.763Z,78.18
2019-01-24T10:28:30.667Z,79.12
2019-01-24T10:31:02.698Z,77.80
2019-01-24T10:33:34.570Z,78.05
2019-01-24T10:36:06.480Z,78.25
2019-01-24T10:38:38.258Z,78.22
2019-01-24T10:41:10.108Z,78.02
2019-01-24T10:43:42.024Z,78.37
2019-01-24T10:46:13.855Z,79.07
2019-01-24T10:48:45.777Z,79.07
2019-01-24T10:51:17.531Z,78.62
2019-01-24T10:53:49.369Z,78.02
2019-01-24T10:56:21.273Z,77.42
2019-01-24T10:58:53.193Z,77.38
2019-01-24T11:01:25.013Z,77.61
2019-01-24T11:03:56.854Z,77.33
2019-01-24T11:06:28.682Z,77.74
2019-01-24T11:09:00.604Z,77.01
2019-01-24T11:11:33.570Z,77.50
2019-01-24T11:14:05.684Z,78.21
2019-01-24T11:16:37.513Z,77.79
2019-01-24T11:19:10.039Z,77.98
2019-01-24T11:21:41.869Z,77.18
2019-01-24T11:24:13.705Z,77.39
2019-01-24T11:26:45.553Z,75.26
2019-01-24T11:29:17.322Z,75.59
2019-01-24T11:31:49.222Z,78.07
2019-01-24T11:34:21.131Z,78.53
2019-01-24T11:36:56.981Z,78.22
2019-01-24T11:39:26.428Z,78.17
2019-01-24T11:41:58.249Z,77.07
2019-01-24T11:44:30.179Z,78.04
2019-01-24T11:47:02.014Z,77.56
2019-01-24T11:49:33.890Z,77.52
2019-01-24T11:52:06.111Z,75.94
2019-01-24T11:54:38.107Z,74.78
2019-01-24T11:57:09.863Z,75.21
2019-01-24T11:59:41.900Z,77.82
2019-01-24T12:02:13.678Z,76.76
2019-01-24T12:04:45.525Z,78.61
2019-01-24T12:07:17.351Z,78.59
2019-01-24T12:09:49.115Z,78.42
2019-01-24T12:12:20.868Z,77.57
2019-01-24T12:14:52.982Z,77.15
2019-01-24T12:17:24.908Z,75.89
2019-01-24T12:19:56.673Z,76.71
2019-01-24T12:22:28.515Z,76.27
2019-01-24T12:25:00.259Z,76.55
2019-01-24T12:27:32.079Z,76.71
2019-01-24T12:30:04.382Z,78.54
2019-01-24T12:32:36.216Z,77.74
2019-01-24T12:35:09.536Z,77.83
2019-01-24T12:37:41.467Z,79.67
2019-01-24T12:40:13.551Z,79.21
2019-01-24T12:42:45.505Z,78.11
2019-01-24T12:45:20.893Z,76.81
2019-01-24T12:47:52.802Z,76.77
2019-01-24T12:50:24.995Z,78.50
2019-01-24T12:53:08.632Z,77.21
2019-01-24T12:55:36.374Z,76.93
2019-01-24T12:58:08.557Z,79.02
2019-01-24T13:00:40.896Z,78.76
2019-01-24T13:03:12.882Z,79.20
2019-01-24T13:05:44.811Z,79.31
2019-01-24T13:08:17.698Z,77.97
2019-01-24T13:10:49.534Z,77.65
2019-01-24T13:13:21.308Z,78.75
2019-01-24T13:15:54.040Z,78.87
2019-01-24T13:18:25.893Z,77.76
2019-01-24T13:20:57.673Z,77.83
2019-01-24T13:23:29.510Z,77.71
2019-01-24T13:26:01.419Z,77.45
2019-01-24T13:28:33.259Z,77.64
2019-01-24T13:31:05.168Z,78.83
2019-01-24T13:33:36.929Z,78.58
2019-01-24T13:36:10.101Z,79.58
2019-01-24T13:38:42.085Z,76.88
2019-01-24T13:41:13.831Z,78.18
2019-01-24T13:43:45.843Z,78.16
2019-01-24T13:46:17.754Z,76.08
2019-01-24T13:48:50.564Z,76.45
2019-01-24T13:51:22.471Z,78.73
2019-01-24T13:53:54.379Z,78.81
2019-01-24T13:56:26.293Z,77.58
2019-01-24T13:58:58.139Z,78.26
2019-01-24T14:01:30.056Z,76.99
2019-01-24T14:04:28.599Z,77.40
2019-01-24T14:07:00.432Z,76.82
2019-01-24T14:09:32.294Z,77.76
2019-01-24T14:12:04.196Z,78.34
2019-01-24T14:14:36.222Z,77.98
2019-01-24T14:17:08.128Z,76.88
2019-01-24T14:19:39.903Z,75.91
2019-01-24T14:22:11.809Z,76.86
2019-01-24T14:24:43.782Z,77.17
2019-01-24T14:27:15.700Z,77.83
2019-01-24T14:29:47.613Z,75.85
2019-01-24T14:32:19.388Z,75.94
2019-01-24T14:34:51.231Z,76.39
2019-01-24T14:37:23.063Z,74.64
2019-01-24T14:39:54.829Z,76.93
2019-01-24T14:42:26.667Z,77.96
2019-01-24T14:44:58.644Z,77.95
2019-01-24T14:47:30.530Z,77.09
2019-01-24T14:50:02.409Z,76.35
2019-01-24T14:52:34.338Z,76.16
2019-01-24T14:55:07.831Z,76.80
2019-01-24T14:57:39.732Z,77.12
2019-01-24T15:00:42.504Z,76.75
2019-01-24T15:03:14.312Z,76.32
2019-01-24T15:05:46.244Z,76.85
2019-01-24T15:08:18.742Z,76.51
2019-01-24T15:10:50.671Z,77.75
2019-01-24T15:13:22.576Z,79.18
2019-01-24T15:15:54.521Z,78.03
2019-01-24T15:18:26.343Z,78.61
2019-01-24T15:20:58.204Z,78.54
2019-01-24T15:23:29.970Z,78.59
2019-01-24T15:26:01.969Z,78.14
2019-01-24T15:28:33.871Z,79.18
2019-01-24T15:31:05.877Z,79.24
2019-01-24T15:33:37.781Z,79.79
2019-01-24T15:36:10.018Z,80.97
2019-01-24T15:38:41.802Z,80.66
2019-01-24T15:41:13.730Z,79.60
2019-01-24T15:43:45.692Z,79.55
2019-01-24T15:46:17.691Z,79.87
2019-01-24T15:48:49.650Z,80.10
2019-01-24T15:51:21.568Z,80.93
2019-01-24T15:53:53.455Z,80.82
2019-01-24T15:56:25.449Z,81.59
2019-01-24T15:58:57.378Z,81.30
2019-01-24T16:01:29.150Z,81.61
2019-01-24T16:04:00.935Z,81.84
2019-01-24T16:06:32.772Z,81.18
2019-01-24T16:09:07.744Z,80.34
2019-01-24T16:11:43.068Z,80.02
2019-01-24T16:14:14.797Z,80.11
2019-01-24T16:16:46.662Z,81.30
2019-01-24T16:19:18.496Z,81.97
2019-01-24T16:21:50.263Z,82.56
2019-01-24T16:24:22.098Z,82.05
2019-01-24T16:26:53.932Z,82.46
2019-01-24T16:29:25.700Z,82.58
2019-01-24T16:31:57.801Z,81.28
2019-01-24T16:34:29.723Z,81.03
2019-01-24T16:37:01.510Z,80.94
2019-01-24T16:39:33.931Z,81.24
2019-01-24T16:42:05.891Z,81.66
2019-01-24T16:44:37.649Z,81.30
2019-01-24T16:47:10.090Z,81.90
2019-01-24T16:49:41.926Z,82.20
2019-01-24T16:52:13.929Z,82.25
2019-01-24T16:54:45.802Z,81.69
2019-01-24T16:57:17.694Z,80.92
2019-01-24T16:59:49.461Z,81.51
2019-01-24T17:02:21.374Z,81.69
2019-01-24T17:04:53.321Z,81.55
2019-01-24T17:07:25.227Z,81.97
2019-01-24T17:09:57.073Z,82.11
2019-01-24T17:12:29.801Z,82.71
2019-01-24T17:15:01.632Z,82.80
2019-01-24T17:17:33.473Z,82.57
2019-01-24T17:20:09.055Z,82.29
2019-01-24T17:22:40.903Z,82.77
2019-01-24T17:25:13.153Z,82.95
2019-01-24T17:27:46.360Z,82.26
2019-01-24T17:30:24.720Z,81.95
2019-01-24T17:32:57.489Z,82.73
2019-01-24T17:35:29.494Z,83.07
2019-01-24T17:38:01.400Z,83.00
2019-01-24T17:40:33.363Z,82.99
2019-01-24T17:43:05.708Z,82.32
2019-01-24T17:45:37.611Z,82.18
2019-01-24T17:48:10.332Z,82.25
2019-01-24T17:50:42.237Z,82.66
2019-01-24T17:53:14.982Z,83.16
2019-01-24T17:55:47.679Z,83.07
2019-01-24T17:58:19.517Z,82.94
2019-01-24T18:00:53.358Z,82.98
2019-01-24T18:03:25.122Z,83.18
2019-01-24T18:05:57.151Z,83.29
2019-01-24T18:08:31.343Z,83.87
2019-01-24T18:11:02.444Z,84.79
2019-01-24T18:13:34.402Z,83.87
2019-01-24T18:16:06.515Z,84.12
2019-01-24T18:18:39.027Z,83.45
2019-01-24T18:21:10.790Z,84.33
2019-01-24T18:23:42.634Z,83.82
2019-01-24T18:26:14.545Z,83.89
2019-01-24T18:28:46.399Z,83.45
2019-01-24T18:31:18.229Z,83.59
2019-01-24T18:33:50.145Z,83.12
2019-01-24T18:36:22.060Z,83.40
2019-01-24T18:38:54.149Z,83.75
2019-01-24T18:41:25.988Z,83.83
2019-01-24T18:43:58.327Z,84.20
2019-01-24T18:46:30.162Z,84.23
2019-01-24T18:49:02.226Z,84.59
2019-01-24T18:51:34.383Z,84.13
2019-01-24T18:54:06.806Z,83.63
2019-01-24T18:56:39.998Z,84.39
2019-01-24T18:59:11.909Z,83.81
2019-01-24T19:01:43.820Z,84.01
2019-01-24T19:04:15.651Z,83.89
2019-01-24T19:06:48.436Z,84.22
2019-01-24T19:09:20.191Z,85.12
2019-01-24T19:11:52.399Z,84.69
2019-01-24T19:14:24.151Z,84.44
2019-01-24T19:16:55.898Z,83.96
2019-01-24T19:19:27.666Z,83.79
2019-01-24T19:21:59.406Z,84.96
2019-01-24T19:24:31.168Z,85.16
2019-01-24T19:27:03.964Z,84.35
2019-01-24T19:29:35.719Z,85.50
2019-01-24T19:32:07.605Z,84.74
2019-01-24T19:34:39.511Z,85.44
2019-01-24T19:37:11.395Z,85.58
2019-01-24T19:39:43.156Z,85.01
2019-01-24T19:42:14.899Z,85.58
2019-01-24T19:44:46.732Z,85.22
2019-01-24T19:47:18.617Z,85.44
2019-01-24T19:49:50.371Z,85.25
2019-01-24T19:52:22.111Z,86.01
2019-01-24T19:54:54.191Z,84.97
2019-01-24T19:57:25.939Z,85.26
2019-01-24T19:59:57.698Z,86.26
2019-01-24T20:02:30.418Z,85.17
2019-01-24T20:05:02.252Z,84.96
2019-01-24T20:07:34.065Z,84.30
2019-01-24T20:10:08.952Z,84.67
2019-01-24T20:12:40.938Z,85.23
2019-01-24T20:15:19.343Z,85.81
2019-01-24T20:17:51.171Z,85.62
2019-01-24T20:20:23.064Z,85.67
2019-01-24T20:22:55.470Z,84.76
2019-01-24T20:25:30.359Z,85.66
2019-01-24T20:28:02.252Z,85.84
2019-01-24T20:30:34.550Z,86.93
2019-01-24T20:33:06.692Z,86.45
2019-01-24T20:36:00.721Z,85.33
2019-01-24T20:38:32.468Z,86.56
2019-01-24T20:41:04.369Z,86.08
2019-01-24T20:43:36.190Z,85.64
2019-01-24T20:46:08.161Z,85.13
2019-01-24T20:48:39.908Z,84.92
2019-01-24T20:51:11.883Z,85.29
2019-01-24T20:53:43.659Z,84.46
2019-01-24T20:56:15.500Z,84.17
2019-01-24T20:58:47.245Z,84.92
2019-01-24T21:01:20.050Z,85.35
2019-01-24T21:03:55.392Z,85.14
2019-01-24T21:06:25.559Z,85.01
2019-01-24T21:08:57.314Z,85.04
2019-01-24T21:11:29.147Z,84.63
2019-01-24T21:14:00.898Z,84.34
2019-01-24T21:16:32.724Z,84.66
2019-01-24T21:19:04.547Z,85.33
2019-01-24T21:21:36.289Z,84.71
2019-01-24T21:24:08.179Z,85.27
2019-01-24T21:26:40.084Z,85.49
2019-01-24T21:29:11.902Z,85.40
2019-01-24T21:31:43.965Z,85.19
2019-01-24T21:34:16.363Z,85.10
2019-01-24T21:36:48.119Z,85.03
2019-01-24T21:39:22.359Z,85.59
2019-01-24T21:41:53.474Z,85.36
2019-01-24T21:44:25.850Z,85.58
2019-01-24T21:46:57.964Z,85.77
2019-01-24T21:49:30.042Z,85.73
2019-01-24T21:52:02.047Z,87.21
2019-01-24T21:54:34.109Z,86.92
2019-01-24T21:57:06.133Z,85.48
2019-01-24T21:59:38.180Z,86.33
2019-01-24T22:02:10.500Z,85.65
2019-01-24T22:04:42.590Z,85.85
2019-01-24T22:07:14.571Z,86.49
2019-01-24T22:09:46.755Z,86.46
2019-01-24T22:12:18.910Z,85.91
2019-01-24T22:14:51.033Z,86.53
2019-01-24T22:17:23.127Z,86.18
2019-01-24T22:19:54.936Z,85.74
2019-01-24T22:22:26.775Z,85.13
2019-01-24T22:24:58.593Z,85.92
2019-01-24T22:27:30.533Z,85.65
2019-01-24T22:30:02.500Z,85.40
2019-01-24T22:32:34.585Z,85.37
2019-01-24T22:35:07.153Z,85.95
2019-01-24T22:37:39.243Z,85.27
2019-01-24T22:40:12.185Z,85.97
2019-01-24T22:42:44.304Z,86.05
2019-01-24T22:45:20.129Z,85.01
2019-01-24T22:47:52.247Z,86.79
2019-01-24T22:50:24.431Z,86.15
2019-01-24T22:52:56.507Z,86.10
2019-01-24T22:55:48.237Z,85.94
2019-01-24T22:58:20.143Z,85.77
2019-01-24T23:01:29.819Z,86.45
2019-01-24T23:04:13.364Z,86.53
2019-01-24T23:06:45.471Z,86.86
2019-01-24T23:09:18.985Z,86.78
2019-01-24T23:11:51.769Z,87.37
2019-01-24T23:14:23.596Z,87.24
2019-01-24T23:16:56.085Z,86.90
2019-01-24T23:19:28.348Z,85.98
2019-01-24T23:22:00.602Z,86.39
2019-01-24T23:24:32.711Z,87.04
2019-01-24T23:27:05.043Z,86.69
2019-01-24T23:29:37.158Z,86.64
2019-01-24T23:32:09.948Z,86.81
2019-01-24T23:34:41.957Z,87.06
2019-01-24T23:37:13.704Z,86.53
2019-01-24T23:39:51.696Z,88.02
2019-01-24T23:42:19.730Z,86.94
2019-01-24T23:44:51.577Z,87.21
2019-01-24T23:47:23.842Z,86.61
2019-01-24T23:49:56.053Z,87.13
2019-01-24T23:52:28.058Z,88.45
2019-01-24T23:55:00.265Z,87.59
2019-01-24T23:57:32.872Z,87.32
